sensor_id;sensor_type;location;lat;lon;timestamp;P1;durP1;ratioP1;P2;durP2;ratioP2
7541;SDS011;3812;50.006;8.230;2023-02-26T00:02:20;5.17;;;2.90;;
7541;SDS011;3812;50.006;8.230;2023-02-26T00:04:49;3.73;;;2.90;;
7541;SDS011;3812;50.006;8.230;2023-02-26T00:07:16;5.03;;;2.80;;
7541;SDS011;3812;50.006;8.230;2023-02-26T00:09:43;6.43;;;3.60;;
7541;SDS011;3812;50.006;8.230;2023-02-26T00:12:10;5.27;;;2.73;;
7541;SDS011;3812;50.006;8.230;2023-02-26T00:14:38;4.87;;;2.90;;
7541;SDS011;3812;50.006;8.230;2023-02-26T00:17:08;5.43;;;2.90;;
7541;SDS011;3812;50.006;8.230;2023-02-26T00:19:39;5.60;;;2.90;;
7541;SDS011;3812;50.006;8.230;2023-02-26T00:22:08;4.47;;;2.60;;
7541;SDS011;3812;50.006;8.230;2023-02-26T00:24:36;4.77;;;2.50;;
7541;SDS011;3812;50.006;8.230;2023-02-26T00:27:03;6.53;;;2.87;;
7541;SDS011;3812;50.006;8.230;2023-02-26T00:29:30;3.53;;;2.53;;
7541;SDS011;3812;50.006;8.230;2023-02-26T00:31:58;6.00;;;2.80;;
7541;SDS011;3812;50.006;8.230;2023-02-26T00:34:25;6.07;;;2.73;;
7541;SDS011;3812;50.006;8.230;2023-02-26T00:36:58;7.87;;;2.60;;
7541;SDS011;3812;50.006;8.230;2023-02-26T00:39:33;7.07;;;2.57;;
7541;SDS011;3812;50.006;8.230;2023-02-26T00:42:03;5.00;;;2.70;;
7541;SDS011;3812;50.006;8.230;2023-02-26T00:44:30;4.17;;;2.67;;
7541;SDS011;3812;50.006;8.230;2023-02-26T00:46:58;7.23;;;2.83;;
7541;SDS011;3812;50.006;8.230;2023-02-26T00:49:29;4.53;;;2.50;;
7541;SDS011;3812;50.006;8.230;2023-02-26T00:52:00;3.47;;;2.70;;
7541;SDS011;3812;50.006;8.230;2023-02-26T00:54:28;5.80;;;2.70;;
7541;SDS011;3812;50.006;8.230;2023-02-26T00:56:58;6.50;;;2.63;;
7541;SDS011;3812;50.006;8.230;2023-02-26T00:59:25;4.83;;;2.10;;
7541;SDS011;3812;50.006;8.230;2023-02-26T01:01:53;3.57;;;2.30;;
7541;SDS011;3812;50.006;8.230;2023-02-26T01:04:21;4.20;;;2.30;;
7541;SDS011;3812;50.006;8.230;2023-02-26T01:06:49;5.47;;;2.87;;
7541;SDS011;3812;50.006;8.230;2023-02-26T01:09:19;6.83;;;2.50;;
7541;SDS011;3812;50.006;8.230;2023-02-26T01:11:48;5.17;;;2.67;;
7541;SDS011;3812;50.006;8.230;2023-02-26T01:14:17;13.37;;;2.70;;
7541;SDS011;3812;50.006;8.230;2023-02-26T01:16:47;4.93;;;2.60;;
7541;SDS011;3812;50.006;8.230;2023-02-26T01:19:17;4.90;;;2.40;;
7541;SDS011;3812;50.006;8.230;2023-02-26T01:21:48;4.33;;;2.63;;
7541;SDS011;3812;50.006;8.230;2023-02-26T01:24:17;3.20;;;2.37;;
7541;SDS011;3812;50.006;8.230;2023-02-26T01:26:47;6.87;;;2.80;;
7541;SDS011;3812;50.006;8.230;2023-02-26T01:29:16;7.87;;;2.70;;
7541;SDS011;3812;50.006;8.230;2023-02-26T01:31:46;5.97;;;2.67;;
7541;SDS011;3812;50.006;8.230;2023-02-26T01:34:16;8.23;;;2.23;;
7541;SDS011;3812;50.006;8.230;2023-02-26T01:36:46;4.40;;;2.63;;
7541;SDS011;3812;50.006;8.230;2023-02-26T01:39:19;5.63;;;2.67;;
7541;SDS011;3812;50.006;8.230;2023-02-26T01:41:50;4.53;;;2.37;;
7541;SDS011;3812;50.006;8.230;2023-02-26T01:44:21;5.47;;;2.77;;
7541;SDS011;3812;50.006;8.230;2023-02-26T01:46:53;4.10;;;2.50;;
7541;SDS011;3812;50.006;8.230;2023-02-26T01:49:23;4.10;;;2.60;;
7541;SDS011;3812;50.006;8.230;2023-02-26T01:51:51;5.50;;;2.53;;
7541;SDS011;3812;50.006;8.230;2023-02-26T01:54:19;4.03;;;2.17;;
7541;SDS011;3812;50.006;8.230;2023-02-26T01:56:47;4.70;;;2.60;;
7541;SDS011;3812;50.006;8.230;2023-02-26T01:59:17;3.87;;;2.70;;
7541;SDS011;3812;50.006;8.230;2023-02-26T02:01:49;4.90;;;2.53;;
7541;SDS011;3812;50.006;8.230;2023-02-26T02:04:19;4.33;;;2.47;;
7541;SDS011;3812;50.006;8.230;2023-02-26T02:06:48;4.50;;;2.50;;
7541;SDS011;3812;50.006;8.230;2023-02-26T02:09:15;6.57;;;2.80;;
7541;SDS011;3812;50.006;8.230;2023-02-26T02:11:47;4.10;;;2.60;;
7541;SDS011;3812;50.006;8.230;2023-02-26T02:14:20;4.57;;;2.27;;
7541;SDS011;3812;50.006;8.230;2023-02-26T02:16:53;6.63;;;2.40;;
7541;SDS011;3812;50.006;8.230;2023-02-26T02:19:25;4.67;;;2.30;;
7541;SDS011;3812;50.006;8.230;2023-02-26T02:22:13;6.87;;;2.70;;
7541;SDS011;3812;50.006;8.230;2023-02-26T02:24:44;7.57;;;2.67;;
7541;SDS011;3812;50.006;8.230;2023-02-26T02:27:18;4.87;;;2.30;;
7541;SDS011;3812;50.006;8.230;2023-02-26T02:29:53;4.80;;;2.70;;
7541;SDS011;3812;50.006;8.230;2023-02-26T02:32:30;5.83;;;2.50;;
7541;SDS011;3812;50.006;8.230;2023-02-26T02:34:59;3.93;;;2.60;;
7541;SDS011;3812;50.006;8.230;2023-02-26T02:37:31;3.57;;;2.50;;
7541;SDS011;3812;50.006;8.230;2023-02-26T02:40:00;4.40;;;2.50;;
7541;SDS011;3812;50.006;8.230;2023-02-26T02:42:31;6.33;;;2.37;;
7541;SDS011;3812;50.006;8.230;2023-02-26T02:45:00;4.40;;;2.47;;
7541;SDS011;3812;50.006;8.230;2023-02-26T02:47:31;7.93;;;2.30;;
7541;SDS011;3812;50.006;8.230;2023-02-26T02:50:02;3.60;;;2.60;;
7541;SDS011;3812;50.006;8.230;2023-02-26T02:52:32;4.40;;;2.60;;
7541;SDS011;3812;50.006;8.230;2023-02-26T02:55:04;7.40;;;2.50;;
7541;SDS011;3812;50.006;8.230;2023-02-26T02:57:36;7.27;;;2.70;;
7541;SDS011;3812;50.006;8.230;2023-02-26T03:00:07;8.23;;;2.80;;
7541;SDS011;3812;50.006;8.230;2023-02-26T03:02:38;8.40;;;2.87;;
7541;SDS011;3812;50.006;8.230;2023-02-26T03:05:06;4.17;;;2.60;;
7541;SDS011;3812;50.006;8.230;2023-02-26T03:07:35;5.13;;;2.70;;
7541;SDS011;3812;50.006;8.230;2023-02-26T03:10:04;4.40;;;2.43;;
7541;SDS011;3812;50.006;8.230;2023-02-26T03:12:32;3.93;;;2.50;;
7541;SDS011;3812;50.006;8.230;2023-02-26T03:15:00;6.17;;;2.60;;
7541;SDS011;3812;50.006;8.230;2023-02-26T03:17:29;4.73;;;2.60;;
7541;SDS011;3812;50.006;8.230;2023-02-26T03:20:02;4.03;;;2.70;;
7541;SDS011;3812;50.006;8.230;2023-02-26T03:22:34;6.70;;;3.03;;
7541;SDS011;3812;50.006;8.230;2023-02-26T03:25:10;5.30;;;2.77;;
7541;SDS011;3812;50.006;8.230;2023-02-26T03:27:40;4.77;;;2.60;;
7541;SDS011;3812;50.006;8.230;2023-02-26T03:30:12;2.97;;;2.67;;
7541;SDS011;3812;50.006;8.230;2023-02-26T03:32:48;6.23;;;2.70;;
7541;SDS011;3812;50.006;8.230;2023-02-26T03:35:23;4.33;;;3.00;;
7541;SDS011;3812;50.006;8.230;2023-02-26T03:37:53;6.40;;;3.13;;
7541;SDS011;3812;50.006;8.230;2023-02-26T03:40:23;4.70;;;3.33;;
7541;SDS011;3812;50.006;8.230;2023-02-26T03:42:53;4.30;;;2.90;;
7541;SDS011;3812;50.006;8.230;2023-02-26T03:45:23;7.13;;;3.10;;
7541;SDS011;3812;50.006;8.230;2023-02-26T03:47:51;4.03;;;2.63;;
7541;SDS011;3812;50.006;8.230;2023-02-26T03:50:23;5.30;;;3.13;;
7541;SDS011;3812;50.006;8.230;2023-02-26T03:53:31;6.03;;;3.27;;
7541;SDS011;3812;50.006;8.230;2023-02-26T03:56:09;5.83;;;2.93;;
7541;SDS011;3812;50.006;8.230;2023-02-26T03:59:04;5.97;;;3.20;;
7541;SDS011;3812;50.006;8.230;2023-02-26T04:01:45;4.83;;;2.90;;
7541;SDS011;3812;50.006;8.230;2023-02-26T04:04:16;4.07;;;3.00;;
7541;SDS011;3812;50.006;8.230;2023-02-26T04:06:46;5.63;;;3.60;;
7541;SDS011;3812;50.006;8.230;2023-02-26T04:09:13;5.10;;;3.13;;
7541;SDS011;3812;50.006;8.230;2023-02-26T04:11:41;5.03;;;3.03;;
7541;SDS011;3812;50.006;8.230;2023-02-26T04:14:10;5.00;;;2.97;;
7541;SDS011;3812;50.006;8.230;2023-02-26T04:16:39;5.50;;;3.40;;
7541;SDS011;3812;50.006;8.230;2023-02-26T04:19:07;10.93;;;3.40;;
7541;SDS011;3812;50.006;8.230;2023-02-26T04:21:35;6.37;;;3.30;;
7541;SDS011;3812;50.006;8.230;2023-02-26T04:24:05;4.67;;;3.10;;
7541;SDS011;3812;50.006;8.230;2023-02-26T04:26:34;4.70;;;3.20;;
7541;SDS011;3812;50.006;8.230;2023-02-26T04:29:01;4.83;;;3.00;;
7541;SDS011;3812;50.006;8.230;2023-02-26T04:31:29;7.70;;;3.60;;
7541;SDS011;3812;50.006;8.230;2023-02-26T04:33:56;4.83;;;3.20;;
7541;SDS011;3812;50.006;8.230;2023-02-26T04:36:23;4.20;;;3.07;;
7541;SDS011;3812;50.006;8.230;2023-02-26T04:38:50;5.97;;;3.77;;
7541;SDS011;3812;50.006;8.230;2023-02-26T04:41:19;4.77;;;3.60;;
7541;SDS011;3812;50.006;8.230;2023-02-26T04:43:48;4.87;;;3.27;;
7541;SDS011;3812;50.006;8.230;2023-02-26T04:46:24;4.57;;;3.07;;
7541;SDS011;3812;50.006;8.230;2023-02-26T04:48:52;5.87;;;3.50;;
7541;SDS011;3812;50.006;8.230;2023-02-26T04:51:20;6.03;;;3.67;;
7541;SDS011;3812;50.006;8.230;2023-02-26T04:53:49;6.37;;;2.93;;
7541;SDS011;3812;50.006;8.230;2023-02-26T04:56:17;4.57;;;3.10;;
7541;SDS011;3812;50.006;8.230;2023-02-26T04:58:46;4.93;;;3.10;;
7541;SDS011;3812;50.006;8.230;2023-02-26T05:01:18;4.10;;;3.17;;
7541;SDS011;3812;50.006;8.230;2023-02-26T05:03:46;5.93;;;3.50;;
7541;SDS011;3812;50.006;8.230;2023-02-26T05:06:14;6.83;;;3.50;;
7541;SDS011;3812;50.006;8.230;2023-02-26T05:08:41;5.10;;;3.20;;
7541;SDS011;3812;50.006;8.230;2023-02-26T05:11:09;3.80;;;3.20;;
7541;SDS011;3812;50.006;8.230;2023-02-26T05:13:36;7.53;;;3.30;;
7541;SDS011;3812;50.006;8.230;2023-02-26T05:16:06;8.90;;;3.67;;
7541;SDS011;3812;50.006;8.230;2023-02-26T05:18:34;6.73;;;3.03;;
7541;SDS011;3812;50.006;8.230;2023-02-26T05:21:01;8.10;;;3.90;;
7541;SDS011;3812;50.006;8.230;2023-02-26T05:23:28;5.30;;;3.10;;
7541;SDS011;3812;50.006;8.230;2023-02-26T05:25:56;4.07;;;2.93;;
7541;SDS011;3812;50.006;8.230;2023-02-26T05:28:24;5.40;;;2.97;;
7541;SDS011;3812;50.006;8.230;2023-02-26T05:30:51;3.57;;;3.10;;
7541;SDS011;3812;50.006;8.230;2023-02-26T05:33:20;4.33;;;2.70;;
7541;SDS011;3812;50.006;8.230;2023-02-26T05:35:47;5.50;;;2.60;;
7541;SDS011;3812;50.006;8.230;2023-02-26T05:38:15;2.90;;;2.50;;
7541;SDS011;3812;50.006;8.230;2023-02-26T05:40:42;3.70;;;2.60;;
7541;SDS011;3812;50.006;8.230;2023-02-26T05:43:09;7.10;;;2.87;;
7541;SDS011;3812;50.006;8.230;2023-02-26T05:45:36;3.77;;;2.90;;
7541;SDS011;3812;50.006;8.230;2023-02-26T05:48:04;4.33;;;2.40;;
7541;SDS011;3812;50.006;8.230;2023-02-26T05:50:32;4.47;;;2.70;;
7541;SDS011;3812;50.006;8.230;2023-02-26T05:52:59;4.37;;;2.80;;
7541;SDS011;3812;50.006;8.230;2023-02-26T05:55:27;3.93;;;3.10;;
7541;SDS011;3812;50.006;8.230;2023-02-26T05:57:54;5.57;;;2.80;;
7541;SDS011;3812;50.006;8.230;2023-02-26T06:00:21;4.27;;;2.70;;
7541;SDS011;3812;50.006;8.230;2023-02-26T06:02:48;2.87;;;2.50;;
7541;SDS011;3812;50.006;8.230;2023-02-26T06:05:16;7.53;;;2.93;;
7541;SDS011;3812;50.006;8.230;2023-02-26T06:07:44;5.47;;;2.60;;
7541;SDS011;3812;50.006;8.230;2023-02-26T06:10:12;4.67;;;2.60;;
7541;SDS011;3812;50.006;8.230;2023-02-26T06:12:39;6.10;;;2.80;;
7541;SDS011;3812;50.006;8.230;2023-02-26T06:15:07;5.03;;;2.70;;
7541;SDS011;3812;50.006;8.230;2023-02-26T06:17:34;5.30;;;2.43;;
7541;SDS011;3812;50.006;8.230;2023-02-26T06:20:02;2.93;;;2.37;;
7541;SDS011;3812;50.006;8.230;2023-02-26T06:22:29;3.63;;;2.57;;
7541;SDS011;3812;50.006;8.230;2023-02-26T06:24:58;3.43;;;2.30;;
7541;SDS011;3812;50.006;8.230;2023-02-26T06:27:25;2.90;;;2.40;;
7541;SDS011;3812;50.006;8.230;2023-02-26T06:29:52;2.60;;;2.17;;
7541;SDS011;3812;50.006;8.230;2023-02-26T06:32:19;3.23;;;2.40;;
7541;SDS011;3812;50.006;8.230;2023-02-26T06:34:47;2.50;;;2.30;;
7541;SDS011;3812;50.006;8.230;2023-02-26T06:37:14;3.70;;;2.57;;
7541;SDS011;3812;50.006;8.230;2023-02-26T06:39:41;3.30;;;2.20;;
7541;SDS011;3812;50.006;8.230;2023-02-26T06:42:10;4.60;;;2.40;;
7541;SDS011;3812;50.006;8.230;2023-02-26T06:44:37;4.00;;;2.53;;
7541;SDS011;3812;50.006;8.230;2023-02-26T06:47:04;4.10;;;2.40;;
7541;SDS011;3812;50.006;8.230;2023-02-26T06:49:32;3.77;;;2.40;;
7541;SDS011;3812;50.006;8.230;2023-02-26T06:51:59;4.77;;;2.60;;
7541;SDS011;3812;50.006;8.230;2023-02-26T06:54:26;2.40;;;2.10;;
7541;SDS011;3812;50.006;8.230;2023-02-26T06:56:53;3.50;;;2.23;;
7541;SDS011;3812;50.006;8.230;2023-02-26T06:59:23;3.93;;;2.73;;
7541;SDS011;3812;50.006;8.230;2023-02-26T07:01:50;3.87;;;2.40;;
7541;SDS011;3812;50.006;8.230;2023-02-26T07:04:18;3.70;;;2.30;;
7541;SDS011;3812;50.006;8.230;2023-02-26T07:06:45;5.53;;;2.40;;
7541;SDS011;3812;50.006;8.230;2023-02-26T07:09:12;3.43;;;2.70;;
7541;SDS011;3812;50.006;8.230;2023-02-26T07:11:39;3.83;;;2.20;;
7541;SDS011;3812;50.006;8.230;2023-02-26T07:14:07;5.00;;;2.30;;
7541;SDS011;3812;50.006;8.230;2023-02-26T07:16:35;3.27;;;2.37;;
7541;SDS011;3812;50.006;8.230;2023-02-26T07:19:02;4.27;;;2.30;;
7541;SDS011;3812;50.006;8.230;2023-02-26T07:21:30;4.50;;;2.60;;
7541;SDS011;3812;50.006;8.230;2023-02-26T07:23:57;3.20;;;2.90;;
7541;SDS011;3812;50.006;8.230;2023-02-26T07:26:24;4.27;;;2.53;;
7541;SDS011;3812;50.006;8.230;2023-02-26T07:28:51;6.67;;;2.40;;
7541;SDS011;3812;50.006;8.230;2023-02-26T07:31:18;2.83;;;2.47;;
7541;SDS011;3812;50.006;8.230;2023-02-26T07:33:47;5.07;;;2.50;;
7541;SDS011;3812;50.006;8.230;2023-02-26T07:36:14;4.27;;;2.53;;
7541;SDS011;3812;50.006;8.230;2023-02-26T07:38:42;4.77;;;2.83;;
7541;SDS011;3812;50.006;8.230;2023-02-26T07:41:09;4.77;;;2.30;;
7541;SDS011;3812;50.006;8.230;2023-02-26T07:43:36;3.57;;;2.43;;
7541;SDS011;3812;50.006;8.230;2023-02-26T07:46:03;3.47;;;2.23;;
7541;SDS011;3812;50.006;8.230;2023-02-26T07:48:31;3.33;;;2.13;;
7541;SDS011;3812;50.006;8.230;2023-02-26T07:50:59;2.30;;;2.10;;
7541;SDS011;3812;50.006;8.230;2023-02-26T07:53:26;3.00;;;2.40;;
7541;SDS011;3812;50.006;8.230;2023-02-26T07:55:54;4.90;;;2.43;;
7541;SDS011;3812;50.006;8.230;2023-02-26T07:58:21;3.47;;;2.37;;
7541;SDS011;3812;50.006;8.230;2023-02-26T08:00:48;2.70;;;1.90;;
7541;SDS011;3812;50.006;8.230;2023-02-26T08:03:16;3.60;;;2.03;;
7541;SDS011;3812;50.006;8.230;2023-02-26T08:05:44;2.70;;;2.03;;
7541;SDS011;3812;50.006;8.230;2023-02-26T08:08:13;2.50;;;2.30;;
7541;SDS011;3812;50.006;8.230;2023-02-26T08:10:40;3.33;;;2.03;;
7541;SDS011;3812;50.006;8.230;2023-02-26T08:13:07;2.40;;;2.13;;
7541;SDS011;3812;50.006;8.230;2023-02-26T08:15:34;2.73;;;1.90;;
7541;SDS011;3812;50.006;8.230;2023-02-26T08:18:02;2.90;;;2.10;;
7541;SDS011;3812;50.006;8.230;2023-02-26T08:20:29;3.17;;;2.13;;
7541;SDS011;3812;50.006;8.230;2023-02-26T08:22:56;5.13;;;2.50;;
7541;SDS011;3812;50.006;8.230;2023-02-26T08:25:25;3.73;;;2.30;;
7541;SDS011;3812;50.006;8.230;2023-02-26T08:27:52;2.20;;;1.97;;
7541;SDS011;3812;50.006;8.230;2023-02-26T08:30:22;4.67;;;2.00;;
7541;SDS011;3812;50.006;8.230;2023-02-26T08:32:49;5.90;;;2.70;;
7541;SDS011;3812;50.006;8.230;2023-02-26T08:35:16;3.03;;;2.20;;
7541;SDS011;3812;50.006;8.230;2023-02-26T08:37:44;4.57;;;2.20;;
7541;SDS011;3812;50.006;8.230;2023-02-26T08:40:11;3.07;;;2.43;;
7541;SDS011;3812;50.006;8.230;2023-02-26T08:42:40;4.10;;;2.73;;
7541;SDS011;3812;50.006;8.230;2023-02-26T08:45:08;4.57;;;2.40;;
7541;SDS011;3812;50.006;8.230;2023-02-26T08:47:35;3.40;;;2.30;;
7541;SDS011;3812;50.006;8.230;2023-02-26T08:50:06;5.23;;;2.40;;
7541;SDS011;3812;50.006;8.230;2023-02-26T08:52:33;2.23;;;2.00;;
7541;SDS011;3812;50.006;8.230;2023-02-26T08:55:00;2.60;;;1.83;;
7541;SDS011;3812;50.006;8.230;2023-02-26T08:57:28;2.07;;;1.73;;
7541;SDS011;3812;50.006;8.230;2023-02-26T08:59:56;2.27;;;1.97;;
7541;SDS011;3812;50.006;8.230;2023-02-26T09:02:23;2.10;;;1.90;;
7541;SDS011;3812;50.006;8.230;2023-02-26T09:04:51;5.90;;;2.40;;
7541;SDS011;3812;50.006;8.230;2023-02-26T09:07:18;3.83;;;2.40;;
7541;SDS011;3812;50.006;8.230;2023-02-26T09:09:45;2.73;;;2.10;;
7541;SDS011;3812;50.006;8.230;2023-02-26T09:12:12;4.03;;;2.13;;
7541;SDS011;3812;50.006;8.230;2023-02-26T09:14:41;2.30;;;2.07;;
7541;SDS011;3812;50.006;8.230;2023-02-26T09:17:09;5.17;;;2.00;;
7541;SDS011;3812;50.006;8.230;2023-02-26T09:19:36;4.70;;;1.83;;
7541;SDS011;3812;50.006;8.230;2023-02-26T09:22:04;5.10;;;2.43;;
7541;SDS011;3812;50.006;8.230;2023-02-26T09:24:31;5.10;;;2.17;;
7541;SDS011;3812;50.006;8.230;2023-02-26T09:26:58;3.13;;;1.93;;
7541;SDS011;3812;50.006;8.230;2023-02-26T09:29:27;3.30;;;1.77;;
7541;SDS011;3812;50.006;8.230;2023-02-26T09:31:54;2.60;;;1.80;;
7541;SDS011;3812;50.006;8.230;2023-02-26T09:34:23;3.33;;;1.70;;
7541;SDS011;3812;50.006;8.230;2023-02-26T09:36:50;3.00;;;1.67;;
7541;SDS011;3812;50.006;8.230;2023-02-26T09:39:17;2.30;;;1.87;;
7541;SDS011;3812;50.006;8.230;2023-02-26T09:41:45;1.63;;;1.53;;
7541;SDS011;3812;50.006;8.230;2023-02-26T09:44:16;2.63;;;1.60;;
7541;SDS011;3812;50.006;8.230;2023-02-26T09:46:47;2.83;;;1.60;;
7541;SDS011;3812;50.006;8.230;2023-02-26T09:49:20;2.50;;;1.50;;
7541;SDS011;3812;50.006;8.230;2023-02-26T09:51:54;3.47;;;1.40;;
7541;SDS011;3812;50.006;8.230;2023-02-26T09:54:26;1.80;;;1.70;;
7541;SDS011;3812;50.006;8.230;2023-02-26T09:56:55;2.23;;;1.50;;
7541;SDS011;3812;50.006;8.230;2023-02-26T09:59:24;2.13;;;1.40;;
7541;SDS011;3812;50.006;8.230;2023-02-26T10:01:54;2.40;;;1.63;;
7541;SDS011;3812;50.006;8.230;2023-02-26T10:04:29;1.63;;;1.50;;
7541;SDS011;3812;50.006;8.230;2023-02-26T10:07:14;2.20;;;1.63;;
7541;SDS011;3812;50.006;8.230;2023-02-26T10:09:50;1.50;;;1.40;;
7541;SDS011;3812;50.006;8.230;2023-02-26T10:12:26;2.10;;;1.53;;
7541;SDS011;3812;50.006;8.230;2023-02-26T10:14:55;1.67;;;1.50;;
7541;SDS011;3812;50.006;8.230;2023-02-26T10:17:27;3.27;;;1.70;;
7541;SDS011;3812;50.006;8.230;2023-02-26T10:20:03;4.03;;;1.63;;
7541;SDS011;3812;50.006;8.230;2023-02-26T10:22:36;2.60;;;1.53;;
7541;SDS011;3812;50.006;8.230;2023-02-26T10:25:08;2.17;;;1.40;;
7541;SDS011;3812;50.006;8.230;2023-02-26T10:27:42;3.10;;;1.40;;
7541;SDS011;3812;50.006;8.230;2023-02-26T10:30:19;2.37;;;1.50;;
7541;SDS011;3812;50.006;8.230;2023-02-26T10:32:54;1.30;;;1.20;;
7541;SDS011;3812;50.006;8.230;2023-02-26T10:35:30;2.87;;;1.60;;
7541;SDS011;3812;50.006;8.230;2023-02-26T10:38:03;3.03;;;1.50;;
7541;SDS011;3812;50.006;8.230;2023-02-26T10:40:36;1.63;;;1.50;;
7541;SDS011;3812;50.006;8.230;2023-02-26T10:43:09;2.13;;;1.67;;
7541;SDS011;3812;50.006;8.230;2023-02-26T10:45:42;2.03;;;1.50;;
7541;SDS011;3812;50.006;8.230;2023-02-26T10:48:18;2.40;;;1.50;;
7541;SDS011;3812;50.006;8.230;2023-02-26T10:50:56;1.80;;;1.40;;
7541;SDS011;3812;50.006;8.230;2023-02-26T10:53:25;2.70;;;1.40;;
7541;SDS011;3812;50.006;8.230;2023-02-26T10:55:56;2.60;;;1.20;;
7541;SDS011;3812;50.006;8.230;2023-02-26T10:58:28;2.03;;;1.50;;
7541;SDS011;3812;50.006;8.230;2023-02-26T11:00:55;1.83;;;1.40;;
7541;SDS011;3812;50.006;8.230;2023-02-26T11:03:25;2.50;;;1.40;;
7541;SDS011;3812;50.006;8.230;2023-02-26T11:05:58;1.90;;;1.40;;
7541;SDS011;3812;50.006;8.230;2023-02-26T11:08:29;1.60;;;1.23;;
7541;SDS011;3812;50.006;8.230;2023-02-26T11:11:00;1.33;;;1.23;;
7541;SDS011;3812;50.006;8.230;2023-02-26T11:13:28;1.40;;;1.23;;
7541;SDS011;3812;50.006;8.230;2023-02-26T11:15:56;2.27;;;1.70;;
7541;SDS011;3812;50.006;8.230;2023-02-26T11:18:27;2.37;;;1.50;;
7541;SDS011;3812;50.006;8.230;2023-02-26T11:21:03;2.70;;;1.20;;
7541;SDS011;3812;50.006;8.230;2023-02-26T11:23:31;1.47;;;1.30;;
7541;SDS011;3812;50.006;8.230;2023-02-26T11:26:02;1.40;;;1.30;;
7541;SDS011;3812;50.006;8.230;2023-02-26T11:28:33;2.07;;;1.43;;
7541;SDS011;3812;50.006;8.230;2023-02-26T11:31:04;1.40;;;1.30;;
7541;SDS011;3812;50.006;8.230;2023-02-26T11:33:33;2.87;;;1.37;;
7541;SDS011;3812;50.006;8.230;2023-02-26T11:36:05;2.00;;;1.37;;
7541;SDS011;3812;50.006;8.230;2023-02-26T11:38:35;1.40;;;1.30;;
7541;SDS011;3812;50.006;8.230;2023-02-26T11:41:03;2.73;;;1.80;;
7541;SDS011;3812;50.006;8.230;2023-02-26T11:43:35;1.40;;;1.30;;
7541;SDS011;3812;50.006;8.230;2023-02-26T11:46:06;2.30;;;1.50;;
7541;SDS011;3812;50.006;8.230;2023-02-26T11:48:36;1.70;;;1.20;;
7541;SDS011;3812;50.006;8.230;2023-02-26T11:51:10;1.10;;;1.10;;
7541;SDS011;3812;50.006;8.230;2023-02-26T11:53:41;1.73;;;1.10;;
7541;SDS011;3812;50.006;8.230;2023-02-26T11:56:13;2.33;;;1.37;;
7541;SDS011;3812;50.006;8.230;2023-02-26T11:58:45;1.27;;;1.10;;
7541;SDS011;3812;50.006;8.230;2023-02-26T12:01:12;2.03;;;1.37;;
7541;SDS011;3812;50.006;8.230;2023-02-26T12:03:42;1.50;;;1.40;;
7541;SDS011;3812;50.006;8.230;2023-02-26T12:06:15;1.23;;;1.10;;
7541;SDS011;3812;50.006;8.230;2023-02-26T12:08:43;1.67;;;1.33;;
7541;SDS011;3812;50.006;8.230;2023-02-26T12:11:21;1.97;;;1.20;;
7541;SDS011;3812;50.006;8.230;2023-02-26T12:14:04;1.30;;;1.13;;
7541;SDS011;3812;50.006;8.230;2023-02-26T12:16:43;2.50;;;1.53;;
7541;SDS011;3812;50.006;8.230;2023-02-26T12:19:33;1.63;;;1.37;;
7541;SDS011;3812;50.006;8.230;2023-02-26T12:22:14;1.40;;;1.30;;
7541;SDS011;3812;50.006;8.230;2023-02-26T12:25:00;2.80;;;1.57;;
7541;SDS011;3812;50.006;8.230;2023-02-26T12:27:52;2.30;;;1.10;;
7541;SDS011;3812;50.006;8.230;2023-02-26T12:30:38;1.30;;;1.20;;
7541;SDS011;3812;50.006;8.230;2023-02-26T12:33:17;1.30;;;1.20;;
7541;SDS011;3812;50.006;8.230;2023-02-26T12:35:56;2.23;;;1.27;;
7541;SDS011;3812;50.006;8.230;2023-02-26T12:38:38;1.40;;;1.20;;
7541;SDS011;3812;50.006;8.230;2023-02-26T12:41:23;1.33;;;1.23;;
7541;SDS011;3812;50.006;8.230;2023-02-26T12:44:27;1.33;;;1.10;;
7541;SDS011;3812;50.006;8.230;2023-02-26T12:47:22;1.63;;;1.47;;
7541;SDS011;3812;50.006;8.230;2023-02-26T12:50:07;1.50;;;1.40;;
7541;SDS011;3812;50.006;8.230;2023-02-26T12:52:48;2.57;;;1.60;;
7541;SDS011;3812;50.006;8.230;2023-02-26T12:55:41;2.37;;;1.53;;
7541;SDS011;3812;50.006;8.230;2023-02-26T13:01:30;1.40;;;1.30;;
7541;SDS011;3812;50.006;8.230;2023-02-26T13:04:28;1.80;;;1.40;;
7541;SDS011;3812;50.006;8.230;2023-02-26T13:07:11;1.30;;;1.07;;
7541;SDS011;3812;50.006;8.230;2023-02-26T13:09:54;1.40;;;1.30;;
7541;SDS011;3812;50.006;8.230;2023-02-26T13:12:30;2.20;;;1.27;;
7541;SDS011;3812;50.006;8.230;2023-02-26T13:15:13;2.93;;;1.50;;
7541;SDS011;3812;50.006;8.230;2023-02-26T13:17:58;1.40;;;1.30;;
7541;SDS011;3812;50.006;8.230;2023-02-26T13:20:30;1.90;;;1.23;;
7541;SDS011;3812;50.006;8.230;2023-02-26T13:23:02;2.43;;;1.37;;
7541;SDS011;3812;50.006;8.230;2023-02-26T13:25:35;1.77;;;1.50;;
7541;SDS011;3812;50.006;8.230;2023-02-26T13:28:10;2.60;;;1.33;;
7541;SDS011;3812;50.006;8.230;2023-02-26T13:30:48;1.77;;;1.20;;
7541;SDS011;3812;50.006;8.230;2023-02-26T13:33:18;1.80;;;1.33;;
7541;SDS011;3812;50.006;8.230;2023-02-26T13:35:48;2.47;;;1.60;;
7541;SDS011;3812;50.006;8.230;2023-02-26T13:38:19;1.50;;;1.40;;
7541;SDS011;3812;50.006;8.230;2023-02-26T13:40:52;1.90;;;1.37;;
7541;SDS011;3812;50.006;8.230;2023-02-26T13:43:34;1.60;;;1.50;;
7541;SDS011;3812;50.006;8.230;2023-02-26T13:46:13;1.50;;;1.30;;
7541;SDS011;3812;50.006;8.230;2023-02-26T13:48:54;2.80;;;1.77;;
7541;SDS011;3812;50.006;8.230;2023-02-26T13:51:29;3.33;;;2.00;;
7541;SDS011;3812;50.006;8.230;2023-02-26T13:54:00;1.97;;;1.43;;
7541;SDS011;3812;50.006;8.230;2023-02-26T13:56:43;2.13;;;1.70;;
7541;SDS011;3812;50.006;8.230;2023-02-26T14:02:33;2.20;;;1.90;;
7541;SDS011;3812;50.006;8.230;2023-02-26T14:05:28;3.37;;;1.73;;
7541;SDS011;3812;50.006;8.230;2023-02-26T14:08:08;1.93;;;1.60;;
7541;SDS011;3812;50.006;8.230;2023-02-26T14:10:53;1.40;;;1.30;;
7541;SDS011;3812;50.006;8.230;2023-02-26T14:13:22;2.00;;;1.77;;
7541;SDS011;3812;50.006;8.230;2023-02-26T14:15:59;1.83;;;1.47;;
7541;SDS011;3812;50.006;8.230;2023-02-26T14:18:30;1.60;;;1.50;;
7541;SDS011;3812;50.006;8.230;2023-02-26T14:24:13;1.63;;;1.53;;
7541;SDS011;3812;50.006;8.230;2023-02-26T14:26:45;2.67;;;2.07;;
7541;SDS011;3812;50.006;8.230;2023-02-26T14:29:15;3.40;;;1.90;;
7541;SDS011;3812;50.006;8.230;2023-02-26T14:31:53;4.87;;;1.80;;
7541;SDS011;3812;50.006;8.230;2023-02-26T14:34:31;2.43;;;1.70;;
7541;SDS011;3812;50.006;8.230;2023-02-26T14:37:02;2.60;;;1.90;;
7541;SDS011;3812;50.006;8.230;2023-02-26T14:39:34;2.27;;;1.80;;
7541;SDS011;3812;50.006;8.230;2023-02-26T14:42:03;2.13;;;1.80;;
7541;SDS011;3812;50.006;8.230;2023-02-26T14:44:34;2.17;;;1.83;;
7541;SDS011;3812;50.006;8.230;2023-02-26T14:47:05;2.83;;;1.60;;
7541;SDS011;3812;50.006;8.230;2023-02-26T14:49:34;1.77;;;1.40;;
7541;SDS011;3812;50.006;8.230;2023-02-26T14:52:10;1.80;;;1.40;;
7541;SDS011;3812;50.006;8.230;2023-02-26T14:54:55;4.60;;;1.80;;
7541;SDS011;3812;50.006;8.230;2023-02-26T14:57:34;2.57;;;1.60;;
7541;SDS011;3812;50.006;8.230;2023-02-26T15:00:12;2.20;;;1.50;;
7541;SDS011;3812;50.006;8.230;2023-02-26T15:02:56;1.60;;;1.50;;
7541;SDS011;3812;50.006;8.230;2023-02-26T15:05:39;3.03;;;1.77;;
7541;SDS011;3812;50.006;8.230;2023-02-26T15:08:20;2.97;;;1.60;;
7541;SDS011;3812;50.006;8.230;2023-02-26T15:11:11;2.87;;;1.97;;
7541;SDS011;3812;50.006;8.230;2023-02-26T15:13:57;2.23;;;1.70;;
7541;SDS011;3812;50.006;8.230;2023-02-26T15:16:38;1.53;;;1.40;;
7541;SDS011;3812;50.006;8.230;2023-02-26T15:19:17;2.00;;;1.80;;
7541;SDS011;3812;50.006;8.230;2023-02-26T15:22:01;2.77;;;1.50;;
7541;SDS011;3812;50.006;8.230;2023-02-26T15:24:37;3.13;;;1.20;;
7541;SDS011;3812;50.006;8.230;2023-02-26T15:27:06;3.20;;;1.80;;
7541;SDS011;3812;50.006;8.230;2023-02-26T15:29:39;1.67;;;1.30;;
7541;SDS011;3812;50.006;8.230;2023-02-26T15:32:13;2.17;;;1.37;;
7541;SDS011;3812;50.006;8.230;2023-02-26T15:34:43;1.57;;;1.10;;
7541;SDS011;3812;50.006;8.230;2023-02-26T15:37:16;1.20;;;1.10;;
7541;SDS011;3812;50.006;8.230;2023-02-26T15:39:47;1.30;;;1.20;;
7541;SDS011;3812;50.006;8.230;2023-02-26T15:42:14;1.47;;;1.37;;
7541;SDS011;3812;50.006;8.230;2023-02-26T15:44:42;1.30;;;1.20;;
7541;SDS011;3812;50.006;8.230;2023-02-26T15:47:10;2.90;;;1.50;;
7541;SDS011;3812;50.006;8.230;2023-02-26T15:49:38;4.40;;;1.83;;
7541;SDS011;3812;50.006;8.230;2023-02-26T15:52:09;5.73;;;1.70;;